Time;durP1;ratioP1;P1;durP2;ratioP2;P2;SDS_P1;SDS_P2;PMS_P1;PMS_P2;Temp;Humidity;BMP_temperature;BMP_pressure;BME280_temperature;BME280_humidity;BME280_pressure;Samples;Min_cycle;Max_cycle;Signal;HPM_P1;HPM_P2
2020/12/24 00:01:53;;;;;;;47.65;28.52;;;;;;;6.48;72.50;95055.88;4188602;28;20500;-78
2020/12/24 00:03:54;;;;;;;44.15;28.40;;;;;;;6.51;72.61;95064.22;4188563;28;20063;-78
2020/12/24 00:05:55;;;;;;;42.53;27.73;;;;;;;6.53;72.44;95069.31;4194398;28;20080;-78
2020/12/24 00:07:57;;;;;;;44.22;28.27;;;;;;;6.55;72.31;95067.41;4179153;28;20144;-78
2020/12/24 00:09:58;;;;;;;46.40;27.98;;;;;;;6.60;72.79;95065.25;4197500;28;20040;-78
2020/12/24 00:11:59;;;;;;;45.17;27.42;;;;;;;6.57;72.36;95068.13;4193509;28;20048;-78
2020/12/24 00:14:00;;;;;;;49.72;28.90;;;;;;;6.61;71.96;95061.72;4194542;28;20049;-75
2020/12/24 00:16:03;;;;;;;40.17;26.92;;;;;;;6.61;72.20;95058.28;4147845;28;20061;-77
2020/12/24 00:18:04;;;;;;;43.22;28.73;;;;;;;6.58;72.25;95056.75;4176122;28;20430;-77
2020/12/24 00:20:06;;;;;;;46.45;29.38;;;;;;;6.54;72.12;95061.41;4196043;28;20082;-78
2020/12/24 00:22:07;;;;;;;48.22;28.40;;;;;;;6.52;72.66;95060.69;4198641;28;20424;-76
2020/12/24 00:24:09;;;;;;;46.53;27.63;;;;;;;6.52;72.58;95060.69;4192386;28;20257;-77
2020/12/24 00:26:10;;;;;;;48.22;31.38;;;;;;;6.50;72.01;95054.78;4183865;28;20044;-78
2020/12/24 00:28:11;;;;;;;45.53;28.58;;;;;;;6.52;72.22;95052.06;4195696;28;20045;-77
2020/12/24 00:30:12;;;;;;;46.92;30.50;;;;;;;6.52;71.94;95057.28;4197673;28;20455;-79
2020/12/24 00:32:14;;;;;;;44.55;29.33;;;;;;;6.47;72.56;95056.81;4194228;28;20049;-78
2020/12/24 00:34:15;;;;;;;47.20;29.85;;;;;;;6.45;72.13;95061.31;4193331;28;20144;-82
2020/12/24 00:36:16;;;;;;;44.35;29.08;;;;;;;6.44;72.51;95052.69;4194686;28;20045;-77
2020/12/24 00:38:18;;;;;;;45.90;29.63;;;;;;;6.43;72.02;95053.66;4199928;28;20047;-68
2020/12/24 00:40:19;;;;;;;48.70;30.92;;;;;;;6.44;72.68;95051.84;4191728;28;20557;-70
2020/12/24 00:42:20;;;;;;;44.22;28.85;;;;;;;6.43;72.81;95058.84;4189370;28;20057;-69
2020/12/24 00:44:22;;;;;;;47.92;29.27;;;;;;;6.29;71.86;95053.94;4169177;28;20156;-69
2020/12/24 00:46:23;;;;;;;47.13;31.35;;;;;;;6.17;72.53;95050.53;4175001;28;20045;-69
2020/12/24 00:48:24;;;;;;;44.83;29.00;;;;;;;6.12;72.74;95042.28;4174455;28;20049;-70
2020/12/24 00:50:25;;;;;;;46.25;28.67;;;;;;;6.17;73.18;95049.69;4184475;28;20048;-69
2020/12/24 00:52:26;;;;;;;50.90;29.75;;;;;;;6.19;73.52;95055.63;4187146;28;20537;-68
2020/12/24 00:54:28;;;;;;;45.65;30.60;;;;;;;6.22;72.98;95050.19;4192148;28;20099;-69
2020/12/24 00:56:29;;;;;;;44.10;28.95;;;;;;;6.24;72.98;95056.91;4176824;28;20485;-69
2020/12/24 00:58:30;;;;;;;45.67;29.27;;;;;;;6.15;73.04;95058.47;4172448;28;20538;-77
2020/12/24 01:00:32;;;;;;;46.92;31.50;;;;;;;6.18;73.29;95056.56;4203861;28;20044;-77
2020/12/24 01:02:34;;;;;;;50.30;31.83;;;;;;;6.22;73.37;95065.78;4204859;28;20060;-78
2020/12/24 01:04:35;;;;;;;47.55;30.55;;;;;;;6.27;73.39;95058.44;4179174;28;20045;-79
2020/12/24 01:06:36;;;;;;;50.28;30.90;;;;;;;6.27;72.94;95059.25;4176841;28;20063;-79
2020/12/24 01:08:37;;;;;;;47.95;30.77;;;;;;;6.29;72.77;95057.34;4202142;28;20530;-78
2020/12/24 01:10:39;;;;;;;45.63;29.17;;;;;;;6.34;72.25;95062.19;4202138;28;20048;-77
2020/12/24 01:12:40;;;;;;;48.63;30.67;;;;;;;6.32;71.93;95051.91;4179638;28;20147;-78
2020/12/24 01:14:41;;;;;;;49.72;30.00;;;;;;;6.33;72.17;95057.94;4203762;28;20526;-77
2020/12/24 01:16:42;;;;;;;44.70;29.65;;;;;;;6.28;71.70;95047.06;4206093;28;20113;-78
2020/12/24 01:18:45;;;;;;;53.22;31.08;;;;;;;6.22;71.69;95043.19;4204639;28;20241;-77
2020/12/24 01:20:47;;;;;;;46.13;29.90;;;;;;;6.21;72.17;95043.31;4188726;28;20191;-76
2020/12/24 01:22:48;;;;;;;45.05;29.65;;;;;;;6.24;72.28;95040.44;4186316;28;20535;-75
2020/12/24 01:24:49;;;;;;;46.95;27.60;;;;;;;6.24;72.52;95037.84;4198730;28;20471;-76
2020/12/24 01:26:50;;;;;;;43.97;28.50;;;;;;;6.22;72.35;95035.38;4202710;28;20044;-78
2020/12/24 01:28:52;;;;;;;48.78;29.83;;;;;;;6.25;72.13;95042.94;4186273;28;20059;-77
2020/12/24 01:30:54;;;;;;;47.72;29.48;;;;;;;6.22;72.10;95027.59;4205862;28;20055;-77
2020/12/24 01:32:55;;;;;;;47.03;28.63;;;;;;;6.15;71.94;95035.06;4206190;28;20112;-79
2020/12/24 01:34:56;;;;;;;48.53;28.23;;;;;;;6.14;72.00;95028.19;4205977;28;20466;-77
2020/12/24 01:37:03;;;;;;;48.78;27.83;;;;;;;6.12;72.58;95018.88;4177945;28;20151;-79
2020/12/24 01:39:05;;;;;;;48.83;27.92;;;;;;;6.13;72.08;95016.16;4203680;28;20049;-78
2020/12/24 01:41:07;;;;;;;43.22;27.50;;;;;;;6.14;72.84;95017.78;4187023;28;20067;-80
2020/12/24 01:43:10;;;;;;;42.72;26.30;;;;;;;6.15;72.23;95008.19;4187478;28;20028;-79
2020/12/24 01:45:11;;;;;;;46.92;28.40;;;;;;;6.15;72.21;95009.03;4187711;28;20110;-78
2020/12/24 01:47:13;;;;;;;45.00;27.10;;;;;;;6.17;72.57;95005.47;4205474;28;20107;-76
2020/12/24 01:49:16;;;;;;;46.85;27.40;;;;;;;6.15;72.12;95010.81;4171915;28;20116;-77
2020/12/24 01:51:30;;;;;;;45.75;26.67;;;;;;;6.17;72.83;95011.50;4204595;28;20049;-79
2020/12/24 01:53:31;;;;;;;40.97;26.65;;;;;;;6.15;72.47;95013.41;4206824;28;20064;-79
2020/12/24 01:55:33;;;;;;;44.28;26.85;;;;;;;6.13;72.22;95015.31;4205900;28;20094;-78
2020/12/24 01:57:35;;;;;;;46.28;27.75;;;;;;;6.11;71.66;95012.84;4205828;28;20052;-77
2020/12/24 01:59:36;;;;;;;46.97;26.33;;;;;;;6.09;72.41;95011.31;4205014;28;20109;-78
2020/12/24 02:01:37;;;;;;;42.92;26.80;;;;;;;6.09;72.55;95013.94;4186771;28;20144;-78
2020/12/24 02:03:38;;;;;;;42.30;26.92;;;;;;;6.11;72.06;95019.81;4200973;28;20044;-77
2020/12/24 02:05:40;;;;;;;45.50;28.15;;;;;;;6.10;71.74;95011.19;4206548;28;20044;-76
2020/12/24 02:07:41;;;;;;;44.55;27.77;;;;;;;6.09;71.92;95006.94;4207664;28;20040;-77
2020/12/24 02:09:47;;;;;;;46.47;28.60;;;;;;;6.07;72.19;95006.25;4204879;28;20108;-75
2020/12/24 02:11:49;;;;;;;43.33;27.02;;;;;;;6.07;72.16;95003.63;4205092;28;20150;-77
2020/12/24 02:13:50;;;;;;;41.30;25.73;;;;;;;6.04;71.90;95006.47;4193767;28;20117;-76
2020/12/24 02:15:51;;;;;;;41.58;26.00;;;;;;;6.05;72.35;95002.13;4205657;28;20056;-78
2020/12/24 02:17:52;;;;;;;38.03;25.10;;;;;;;6.05;72.16;95002.94;4206456;28;20063;-77
2020/12/24 02:19:53;;;;;;;38.72;23.27;;;;;;;5.99;72.10;95000.00;4204293;28;20100;-77
2020/12/24 02:21:54;;;;;;;36.83;22.70;;;;;;;5.92;72.23;94997.03;4203072;28;20264;-77
2020/12/24 02:23:56;;;;;;;36.05;22.25;;;;;;;5.91;72.92;94995.38;4182921;28;20131;-77
2020/12/24 02:25:57;;;;;;;36.03;21.23;;;;;;;5.91;72.82;95008.38;4188242;28;20581;-77
2020/12/24 02:27:58;;;;;;;34.20;23.10;;;;;;;5.94;72.75;95011.59;4200852;28;20120;-77
2020/12/24 02:30:01;;;;;;;41.95;24.10;;;;;;;5.97;72.55;95000.13;4211961;28;20103;-77
2020/12/24 02:32:03;;;;;;;38.85;23.42;;;;;;;5.97;72.54;94996.69;4209427;28;20060;-78
2020/12/24 02:34:04;;;;;;;34.38;22.20;;;;;;;5.96;72.39;94995.88;4203643;28;20538;-79
2020/12/24 02:36:06;;;;;;;37.38;22.67;;;;;;;5.90;72.72;94989.34;4206167;28;20114;-79
2020/12/24 02:38:07;;;;;;;36.63;23.02;;;;;;;5.91;73.40;94996.19;4204841;28;20045;-77
2020/12/24 02:40:08;;;;;;;40.35;25.67;;;;;;;5.91;72.51;95001.41;4196006;28;20054;-77
2020/12/24 02:42:10;;;;;;;37.53;24.20;;;;;;;5.79;72.88;95002.41;4195637;28;20040;-78
2020/12/24 02:44:11;;;;;;;46.35;23.55;;;;;;;5.70;73.42;94997.91;4194623;28;20071;-77
2020/12/24 02:46:13;;;;;;;38.67;23.67;;;;;;;5.69;73.90;94989.28;4177209;28;20053;-76
2020/12/24 02:48:15;;;;;;;40.78;24.13;;;;;;;5.71;73.50;94989.19;4161392;28;20447;-76
2020/12/24 02:50:16;;;;;;;40.17;24.33;;;;;;;5.73;73.36;94987.28;4187189;28;20056;-79
2020/12/24 02:52:17;;;;;;;44.67;25.55;;;;;;;5.71;73.26;94990.00;4172663;28;20059;-77
2020/12/24 02:54:18;;;;;;;40.03;26.17;;;;;;;5.70;72.78;94988.34;4177503;28;20140;-77
2020/12/24 02:56:20;;;;;;;39.25;25.02;;;;;;;5.75;72.97;94986.22;4187859;28;20071;-77
2020/12/24 02:58:21;;;;;;;45.25;30.23;;;;;;;5.73;72.53;94987.28;4192129;28;20055;-68
2020/12/24 03:00:22;;;;;;;45.22;30.02;;;;;;;5.78;72.81;94985.13;4176179;28;20041;-68
2020/12/24 03:02:24;;;;;;;47.50;30.67;;;;;;;5.79;72.75;94978.19;4175727;28;20052;-68
2020/12/24 03:04:25;;;;;;;45.25;30.33;;;;;;;5.81;73.10;94973.66;4206456;28;20067;-71
2020/12/24 03:06:26;;;;;;;46.22;29.52;;;;;;;5.86;72.71;94976.72;4207456;28;20064;-68
2020/12/24 03:08:28;;;;;;;45.17;28.35;;;;;;;5.86;72.83;94968.94;4181337;28;20488;-69
2020/12/24 03:10:29;;;;;;;43.60;26.85;;;;;;;5.86;72.45;94971.53;4181901;28;20056;-67
2020/12/24 03:12:30;;;;;;;46.20;28.70;;;;;;;5.83;72.10;94966.56;4182965;28;20494;-68
2020/12/24 03:14:31;;;;;;;43.22;27.33;;;;;;;5.81;72.19;94977.09;4182443;28;20087;-71
2020/12/24 03:16:33;;;;;;;42.42;26.58;;;;;;;5.75;72.65;94970.59;4186295;28;20275;-68
2020/12/24 03:18:34;;;;;;;43.33;25.70;;;;;;;5.70;72.37;94964.97;4182143;28;20451;-69
2020/12/24 03:20:35;;;;;;;38.88;25.33;;;;;;;5.69;72.69;94976.28;4205214;28;20476;-71
2020/12/24 03:22:38;;;;;;;41.20;25.98;;;;;;;5.57;72.73;94972.09;4194000;28;20052;-69
2020/12/24 03:24:39;;;;;;;41.60;23.85;;;;;;;5.57;73.07;94971.25;4192134;28;20054;-68
2020/12/24 03:26:40;;;;;;;35.22;23.52;;;;;;;5.57;72.96;94976.44;4191825;28;20044;-69
2020/12/24 03:28:41;;;;;;;40.17;25.10;;;;;;;5.59;73.56;94982.34;4192054;28;20048;-78
2020/12/24 03:30:43;;;;;;;36.33;24.85;;;;;;;5.63;73.51;94981.97;4193481;28;20407;-77
2020/12/24 03:32:45;;;;;;;40.05;24.20;;;;;;;5.59;73.41;94983.16;4194513;28;20063;-77
2020/12/24 03:34:46;;;;;;;42.03;25.13;;;;;;;5.54;73.26;94983.53;4193725;28;20215;-77
2020/12/24 03:36:47;;;;;;;38.92;25.77;;;;;;;5.44;73.58;94981.78;4193836;28;20056;-78
2020/12/24 03:38:48;;;;;;;49.55;30.13;;;;;;;5.22;74.47;94980.03;4192275;28;20419;-77
2020/12/24 03:40:49;;;;;;;42.90;26.80;;;;;;;5.21;74.55;94987.03;4193244;28;20059;-68
2020/12/24 03:42:51;;;;;;;37.70;25.33;;;;;;;5.25;74.20;94980.66;4192598;28;20052;-69
2020/12/24 03:44:52;;;;;;;43.35;26.75;;;;;;;5.31;73.71;94984.50;4173977;28;20113;-68
2020/12/24 03:46:53;;;;;;;37.03;24.50;;;;;;;5.33;73.93;94982.63;4194167;28;20450;-68
2020/12/24 03:48:54;;;;;;;40.28;26.00;;;;;;;5.34;73.69;94977.31;4193560;28;20064;-69
2020/12/24 03:50:56;;;;;;;35.65;23.77;;;;;;;5.38;73.43;94982.25;4192900;28;20129;-68
2020/12/24 03:52:57;;;;;;;41.92;24.58;;;;;;;5.42;73.32;94979.31;4193602;28;20054;-69
2020/12/24 03:54:58;;;;;;;43.67;25.83;;;;;;;5.44;73.81;94976.59;4175097;28;20449;-68
2020/12/24 03:57:00;;;;;;;42.40;25.42;;;;;;;5.46;72.99;94980.75;4192553;28;20056;-69
2020/12/24 03:59:01;;;;;;;39.25;25.65;;;;;;;5.52;73.00;94976.81;4174393;28;20057;-69
2020/12/24 04:01:04;;;;;;;38.47;24.92;;;;;;;5.42;72.36;94981.94;4161994;28;20041;-69
2020/12/24 04:03:06;;;;;;;35.22;24.35;;;;;;;5.42;73.00;94978.47;4202419;28;20045;-68
2020/12/24 04:05:08;;;;;;;40.43;23.70;;;;;;;5.46;72.82;94987.69;4155474;28;20045;-69
2020/12/24 04:07:19;;;;;;;36.58;22.48;;;;;;;5.49;73.04;94990.06;4199537;28;20060;-68
2020/12/24 04:09:20;;;;;;;33.00;22.40;;;;;;;5.47;73.50;94991.94;4192953;28;20197;-69
2020/12/24 04:11:22;;;;;;;39.70;24.10;;;;;;;5.37;72.32;94989.22;4193206;28;20523;-70
2020/12/24 04:13:23;;;;;;;38.63;24.02;;;;;;;5.29;72.88;94986.41;4200162;28;20122;-69
2020/12/24 04:15:25;;;;;;;40.13;23.42;;;;;;;5.29;73.50;94986.41;4172630;28;20045;-76
2020/12/24 04:17:26;;;;;;;36.72;22.70;;;;;;;5.29;73.63;94997.66;4209143;28;20055;-77
2020/12/24 04:19:27;;;;;;;36.60;23.98;;;;;;;5.27;73.35;94990.91;4196871;28;20267;-77
2020/12/24 04:21:29;;;;;;;43.00;24.25;;;;;;;5.34;73.53;94981.69;4193468;28;20060;-76
2020/12/24 04:23:30;;;;;;;44.90;26.92;;;;;;;5.40;73.28;94976.03;4174968;28;20084;-78
2020/12/24 04:25:31;;;;;;;51.30;27.88;;;;;;;5.44;73.85;94979.19;4174795;28;20064;-78
2020/12/24 04:27:32;;;;;;;38.28;24.77;;;;;;;5.45;73.79;94984.28;4191058;28;20102;-78
2020/12/24 04:29:33;;;;;;;36.90;24.25;;;;;;;5.46;73.63;94977.28;4188421;28;20155;-78
2020/12/24 04:31:40;;;;;;;38.70;23.02;;;;;;;5.51;73.38;94977.78;4175775;28;20053;-79
2020/12/24 04:33:42;;;;;;;40.38;25.00;;;;;;;5.50;72.90;94979.53;4171418;28;20087;-77
2020/12/24 04:35:43;;;;;;;37.67;23.88;;;;;;;5.53;72.44;94981.06;4174316;28;20096;-77
2020/12/24 04:37:44;;;;;;;46.60;27.35;;;;;;;5.45;73.11;94979.06;4193479;28;20125;-79
2020/12/24 04:39:46;;;;;;;40.05;25.13;;;;;;;5.43;72.96;94980.97;4192602;28;20071;-79
2020/12/24 04:41:47;;;;;;;42.97;23.25;;;;;;;5.41;73.07;94979.44;4174651;28;20073;-77
2020/12/24 04:43:49;;;;;;;36.40;23.75;;;;;;;5.44;73.04;94976.59;4191079;28;20060;-69
2020/12/24 04:45:50;;;;;;;39.28;22.95;;;;;;;5.48;73.08;94978.81;4156691;28;20049;-70
2020/12/24 04:47:55;;;;;;;36.33;23.23;;;;;;;5.53;72.76;94976.69;4158701;28;20385;-69
2020/12/24 04:49:58;;;;;;;37.28;24.38;;;;;;;5.55;72.57;94976.59;4191610;28;20303;-69
2020/12/24 04:52:01;;;;;;;38.08;25.65;;;;;;;5.56;72.73;94969.59;4164189;28;20085;-70
2020/12/24 04:54:02;;;;;;;40.58;25.52;;;;;;;5.59;72.54;94971.94;4202240;28;20063;-70
2020/12/24 04:56:06;;;;;;;36.38;23.38;;;;;;;5.58;72.30;94965.94;4174264;28;20067;-69
2020/12/24 04:58:11;;;;;;;34.65;21.70;;;;;;;5.59;72.83;94971.94;4195848;28;20546;-69
2020/12/24 05:00:12;;;;;;;34.40;22.98;;;;;;;5.60;72.94;94971.84;4182586;28;20045;-70
2020/12/24 05:02:13;;;;;;;36.90;21.73;;;;;;;5.60;72.68;94968.41;4173997;28;20060;-69
2020/12/24 05:04:17;;;;;;;40.78;22.50;;;;;;;5.54;72.94;94969.72;4192690;28;20472;-69
2020/12/24 05:06:18;;;;;;;39.70;25.05;;;;;;;5.55;72.79;94963.59;4191354;28;20056;-68
2020/12/24 05:08:19;;;;;;;37.83;24.15;;;;;;;5.53;72.55;94970.69;4191205;28;20127;-69
2020/12/24 05:10:21;;;;;;;37.00;20.65;;;;;;;5.50;72.67;94969.13;4192508;28;20048;-70
2020/12/24 05:12:31;;;;;;;38.55;22.02;;;;;;;5.53;73.37;94971.50;4190559;28;20052;-69
2020/12/24 05:14:33;;;;;;;32.55;20.90;;;;;;;5.58;72.94;94978.94;4204815;28;20062;-69
2020/12/24 05:16:34;;;;;;;34.50;21.23;;;;;;;5.58;72.88;94968.53;4161974;28;20362;-68
2020/12/24 05:18:35;;;;;;;38.83;23.50;;;;;;;5.53;73.01;94981.06;4203160;28;20052;-69
2020/12/24 05:20:40;;;;;;;33.28;22.83;;;;;;;5.54;72.60;94972.31;4188415;28;20135;-67
2020/12/24 05:22:41;;;;;;;32.17;21.90;;;;;;;5.57;72.85;94969.50;4173529;28;20053;-72
2020/12/24 05:24:42;;;;;;;34.28;21.88;;;;;;;5.57;72.74;94971.25;4192281;28;20126;-69
2020/12/24 05:26:44;;;;;;;33.45;22.55;;;;;;;5.54;72.51;94982.72;4190383;28;20394;-69
2020/12/24 05:28:45;;;;;;;41.28;25.27;;;;;;;5.38;73.35;94979.66;4187414;28;20076;-69
2020/12/24 05:30:47;;;;;;;37.92;24.30;;;;;;;5.39;73.54;94976.13;4185629;28;20068;-69
2020/12/24 05:32:48;;;;;;;35.35;22.02;;;;;;;5.40;73.23;94960.44;4168908;28;20128;-68
2020/12/24 05:34:50;;;;;;;36.95;22.35;;;;;;;5.47;73.41;94964.19;4199920;28;20124;-69
2020/12/24 05:36:51;;;;;;;37.72;22.13;;;;;;;5.52;72.76;94964.63;4156862;28;20060;-68
2020/12/24 05:38:53;;;;;;;31.60;20.67;;;;;;;5.58;72.95;94965.94;4190532;28;20048;-66
2020/12/24 05:40:54;;;;;;;35.22;21.98;;;;;;;5.61;72.71;94959.66;4192106;28;20114;-70
2020/12/24 05:42:57;;;;;;;36.28;21.95;;;;;;;5.63;72.18;94958.59;4190516;28;20463;-69
2020/12/24 05:45:14;;;;;;;33.45;21.67;;;;;;;5.63;73.09;94958.59;4173412;28;20056;-69
2020/12/24 05:47:26;;;;;;;36.58;22.83;;;;;;;5.62;72.22;94956.94;4190896;28;20072;-76
2020/12/24 05:49:28;;;;;;;34.40;22.13;;;;;;;5.60;72.74;94960.63;4157554;28;20080;-77
2020/12/24 05:51:31;;;;;;;43.88;25.48;;;;;;;5.46;72.70;94959.94;4164909;28;20049;-78
2020/12/24 05:53:33;;;;;;;43.45;26.92;;;;;;;5.11;73.64;94966.13;4173784;28;20445;-77
2020/12/24 05:55:35;;;;;;;85.45;51.50;;;;;;;4.81;75.32;94968.50;4203592;28;20044;-77
2020/12/24 05:57:36;;;;;;;57.22;32.10;;;;;;;4.87;74.92;94961.06;4157112;28;20591;-77
2020/12/24 05:59:38;;;;;;;50.13;29.48;;;;;;;4.97;74.91;94952.53;4185098;28;20618;-79
2020/12/24 06:01:39;;;;;;;46.65;29.20;;;;;;;5.07;73.95;94948.31;4176200;28;20053;-77
2020/12/24 06:04:05;;;;;;;36.40;24.52;;;;;;;5.17;73.72;94949.25;4195706;28;20069;-78
2020/12/24 06:06:12;;;;;;;38.33;24.13;;;;;;;5.29;74.21;94947.44;4164612;28;20476;-77
2020/12/24 06:08:17;;;;;;;36.42;23.75;;;;;;;5.36;73.36;94956.41;4182476;28;20040;-78
2020/12/24 06:10:43;;;;;;;37.72;25.95;;;;;;;5.39;73.58;94945.78;4178741;28;20071;-82
2020/12/24 06:12:55;;;;;;;42.47;27.27;;;;;;;5.42;73.20;94961.13;4194489;28;20086;-77
2020/12/24 06:15:01;;;;;;;43.78;26.05;;;;;;;5.47;73.10;94961.59;4191883;28;20057;-76
2020/12/24 06:17:04;;;;;;;40.05;25.13;;;;;;;5.24;73.32;94960.78;4194483;28;20052;-77
2020/12/24 06:19:23;;;;;;;38.85;22.73;;;;;;;4.84;75.13;94952.66;4179823;28;20036;-77
2020/12/24 06:21:26;;;;;;;33.63;21.67;;;;;;;4.84;74.74;94955.25;4176110;28;20041;-79
2020/12/24 06:23:32;;;;;;;36.65;23.65;;;;;;;4.97;75.48;94957.75;4179887;28;20227;-77
2020/12/24 06:25:33;;;;;;;36.08;23.25;;;;;;;5.05;74.88;94953.59;4173405;28;20505;-77
2020/12/24 06:27:46;;;;;;;34.72;21.23;;;;;;;5.19;74.65;94954.31;4197520;28;20149;-77
2020/12/24 06:29:50;;;;;;;37.58;22.20;;;;;;;5.34;74.33;94956.53;4174906;28;20049;-78
2020/12/24 06:31:53;;;;;;;38.90;22.27;;;;;;;5.44;73.65;94964.44;4190903;28;20064;-76
2020/12/24 06:33:54;;;;;;;31.97;19.67;;;;;;;5.47;73.62;94959.00;4192211;28;20394;-77
2020/12/24 06:35:56;;;;;;;31.95;19.38;;;;;;;5.54;73.36;94956.72;4189433;28;20282;-76
2020/12/24 06:37:57;;;;;;;29.52;20.00;;;;;;;5.64;73.28;94962.03;4180381;28;20492;-78
2020/12/24 06:39:59;;;;;;;34.88;22.70;;;;;;;5.72;73.07;94959.63;4195049;28;20053;-78
2020/12/24 06:42:00;;;;;;;36.55;22.70;;;;;;;5.66;72.80;94960.13;4193144;28;20052;-78
2020/12/24 06:44:01;;;;;;;47.95;27.40;;;;;;;5.63;73.14;94958.59;4192995;28;20044;-76
2020/12/24 06:46:02;;;;;;;64.47;31.33;;;;;;;5.58;73.16;94958.13;4193985;28;20299;-77
2020/12/24 06:48:21;;;;;;;45.67;27.52;;;;;;;5.33;73.84;94965.28;4194972;28;20053;-78
2020/12/24 06:50:39;;;;;;;46.97;29.13;;;;;;;5.13;74.89;94963.41;4193573;28;20076;-76
2020/12/24 06:52:40;;;;;;;52.30;34.22;;;;;;;4.89;76.13;94964.34;4194386;28;20048;-80
2020/12/24 06:54:41;;;;;;;52.03;32.22;;;;;;;5.02;76.65;94963.44;4194045;28;20045;-76
2020/12/24 06:56:43;;;;;;;55.47;36.00;;;;;;;5.10;75.87;94958.47;4194200;28;20129;-79
2020/12/24 06:58:53;;;;;;;67.55;41.95;;;;;;;5.22;76.08;94964.47;4159445;28;20517;-77
2020/12/24 07:01:00;;;;;;;71.47;42.00;;;;;;;5.19;76.06;94968.13;4176214;28;20489;-79
2020/12/24 07:03:25;;;;;;;64.20;43.22;;;;;;;5.38;75.74;94975.31;4147863;28;20083;-78
2020/12/24 07:05:45;;;;;;;52.90;34.60;;;;;;;5.56;74.74;94962.63;4194220;28;20060;-81
2020/12/24 07:07:46;;;;;;;58.58;35.03;;;;;;;5.74;74.29;94968.13;4194386;28;20064;-77
2020/12/24 07:09:47;;;;;;;52.38;32.63;;;;;;;5.85;73.59;94968.13;4159089;28;20049;-76
2020/12/24 07:11:50;;;;;;;57.83;38.80;;;;;;;5.90;73.49;94965.13;4190314;28;20127;-69
2020/12/24 07:13:52;;;;;;;66.78;43.40;;;;;;;5.99;73.23;94964.41;4191999;28;20048;-68
2020/12/24 07:15:53;;;;;;;81.07;51.03;;;;;;;6.00;73.33;94963.47;4192806;28;20063;-70
2020/12/24 07:17:55;;;;;;;74.60;46.03;;;;;;;6.06;73.26;94956.94;4176147;28;20053;-69
2020/12/24 07:19:57;;;;;;;77.78;47.30;;;;;;;6.17;72.92;94953.47;4191851;28;20068;-69
2020/12/24 07:21:59;;;;;;;84.32;52.83;;;;;;;6.24;72.51;94959.78;4179386;28;20376;-69
2020/12/24 07:24:01;;;;;;;77.80;50.17;;;;;;;6.30;72.22;94954.94;4179471;28;20072;-69
2020/12/24 07:26:05;;;;;;;80.53;49.78;;;;;;;6.38;72.05;94954.28;4175411;28;20045;-69
2020/12/24 07:28:14;;;;;;;83.50;49.70;;;;;;;6.43;72.15;94952.16;4191398;28;20114;-69
2020/12/24 07:30:17;;;;;;;88.18;51.60;;;;;;;6.45;71.96;94945.00;4184798;28;20513;-69
2020/12/24 07:32:19;;;;;;;77.90;50.25;;;;;;;6.42;72.32;94941.84;4185668;28;20455;-70
2020/12/24 07:34:24;;;;;;;78.13;51.28;;;;;;;6.46;71.76;94945.84;4193470;28;20059;-69
2020/12/24 07:36:25;;;;;;;78.82;49.90;;;;;;;6.49;71.72;94950.78;4171213;28;20049;-79
2020/12/24 07:38:29;;;;;;;76.93;47.70;;;;;;;6.52;71.58;94951.38;4179043;28;20053;-79
2020/12/24 07:40:31;;;;;;;76.20;46.88;;;;;;;6.54;71.57;94951.25;4175668;28;20044;-77
2020/12/24 07:42:32;;;;;;;77.55;46.38;;;;;;;6.53;71.26;94950.41;4192875;28;20060;-79
2020/12/24 07:44:33;;;;;;;71.10;45.25;;;;;;;6.61;71.32;94947.19;4195935;28;20056;-79
2020/12/24 07:46:34;;;;;;;78.93;51.67;;;;;;;6.71;71.57;94940.25;4193029;28;20496;-76
2020/12/24 07:48:36;;;;;;;75.00;43.30;;;;;;;6.77;71.08;94938.88;4174261;28;20157;-79
2020/12/24 07:50:37;;;;;;;62.95;41.20;;;;;;;6.85;70.76;94940.84;4191525;28;20083;-79
2020/12/24 07:52:46;;;;;;;69.90;40.72;;;;;;;6.97;70.12;94939.81;4162772;28;20063;-79
2020/12/24 07:54:47;;;;;;;59.42;36.72;;;;;;;7.04;69.65;94942.72;4194000;28;20105;-79
2020/12/24 07:56:48;;;;;;;57.17;37.17;;;;;;;7.11;69.32;94949.84;4191847;28;20174;-78
2020/12/24 07:58:59;;;;;;;53.58;36.63;;;;;;;7.18;69.15;94955.38;4193672;28;20065;-77
2020/12/24 08:01:05;;;;;;;58.72;37.63;;;;;;;7.24;68.88;94947.03;4191155;28;20112;-78
2020/12/24 08:03:07;;;;;;;56.83;38.85;;;;;;;7.24;69.00;94954.03;4193886;28;20117;-80
2020/12/24 08:05:08;;;;;;;62.47;38.38;;;;;;;7.20;68.91;94950.84;4175674;28;20045;-78
2020/12/24 08:07:10;;;;;;;57.05;39.05;;;;;;;7.15;69.31;94951.25;4192249;28;20139;-78
2020/12/24 08:09:17;;;;;;;58.50;39.83;;;;;;;7.10;69.49;94948.22;4193558;28;20454;-76
2020/12/24 08:11:18;;;;;;;59.83;40.95;;;;;;;7.09;69.70;94956.97;4174762;28;20053;-79
2020/12/24 08:13:21;;;;;;;59.85;40.40;;;;;;;7.20;69.63;94948.25;4174825;28;20045;-78
2020/12/24 08:15:22;;;;;;;69.10;40.42;;;;;;;7.32;68.98;94955.00;4175504;28;20104;-77
2020/12/24 08:17:31;;;;;;;70.55;42.28;;;;;;;7.24;69.11;94944.41;4193677;28;20048;-77
2020/12/24 08:19:44;;;;;;;66.35;40.70;;;;;;;7.25;69.51;94953.06;4175455;28;20060;-79
2020/12/24 08:21:52;;;;;;;64.35;42.13;;;;;;;7.28;69.20;94950.19;4156170;28;20050;-79
2020/12/24 08:24:00;;;;;;;62.47;41.40;;;;;;;7.31;69.67;94953.38;4192360;28;20076;-80
2020/12/24 08:26:02;;;;;;;64.45;41.67;;;;;;;7.41;69.24;94949.97;4174778;28;20592;-77
2020/12/24 08:28:03;;;;;;;59.05;39.75;;;;;;;7.47;68.91;94949.44;4174482;28;20053;-77
2020/12/24 08:30:19;;;;;;;66.43;40.22;;;;;;;7.58;68.70;94946.69;4172917;28;20172;-79
2020/12/24 08:32:20;;;;;;;61.90;40.13;;;;;;;7.71;68.31;94949.06;4169809;28;20256;-78
2020/12/24 08:34:22;;;;;;;60.20;40.33;;;;;;;7.75;68.16;94948.66;4175062;28;20504;-76
2020/12/24 08:36:28;;;;;;;58.85;38.55;;;;;;;7.71;68.17;94947.25;4192226;28;20050;-79
2020/12/24 08:38:29;;;;;;;58.58;40.15;;;;;;;7.80;67.98;94945.63;4194197;28;20500;-78
2020/12/24 08:40:32;;;;;;;67.10;40.35;;;;;;;7.90;67.97;94953.47;4193171;28;20044;-78
2020/12/24 08:42:34;;;;;;;67.13;44.78;;;;;;;7.95;67.44;94953.88;4165574;28;20048;-83
2020/12/24 08:44:35;;;;;;;70.53;45.10;;;;;;;8.05;67.37;94952.09;4170560;28;20520;-79
2020/12/24 08:46:37;;;;;;;66.22;45.53;;;;;;;8.18;67.61;94941.38;4193104;28;20060;-80
2020/12/24 08:48:38;;;;;;;69.18;45.33;;;;;;;8.27;66.97;94937.94;4192929;28;20464;-79
2020/12/24 08:50:40;;;;;;;83.18;57.05;;;;;;;8.15;66.94;94944.25;4192894;28;20045;-78
2020/12/24 08:52:43;;;;;;;75.38;52.72;;;;;;;8.30;67.00;94942.06;4192643;28;20075;-81
2020/12/24 08:54:58;;;;;;;87.43;56.13;;;;;;;8.51;66.42;94934.91;4193213;28;20075;-82
2020/12/24 08:57:00;;;;;;;103.80;75.80;;;;;;;8.23;66.86;94931.34;4158251;28;20060;-80
2020/12/24 08:59:06;;;;;;;117.07;84.90;;;;;;;8.18;68.04;94929.16;4170712;28;20131;-80
2020/12/24 09:01:08;;;;;;;122.25;79.85;;;;;;;8.30;67.20;94929.00;4173632;28;20067;-78
2020/12/24 09:03:25;;;;;;;104.50;75.50;;;;;;;8.28;67.35;94912.66;4175393;28;20053;-79
2020/12/24 09:05:26;;;;;;;94.15;64.68;;;;;;;8.55;67.27;94906.72;4174816;28;20707;-80
2020/12/24 09:07:30;;;;;;;100.50;67.70;;;;;;;8.81;66.38;94912.97;4195283;28;20509;-77
2020/12/24 09:09:31;;;;;;;90.30;62.22;;;;;;;9.01;65.46;94903.28;4192563;28;20136;-81
2020/12/24 09:11:33;;;;;;;93.38;60.03;;;;;;;8.84;66.42;94906.66;4191690;28;20080;-79
2020/12/24 09:13:34;;;;;;;84.63;58.53;;;;;;;8.90;66.04;94902.63;4158155;28;20058;-80
2020/12/24 09:15:36;;;;;;;75.75;51.75;;;;;;;9.04;66.00;94890.91;4191762;28;20064;-79
2020/12/24 09:17:48;;;;;;;79.80;50.40;;;;;;;9.19;65.36;94897.28;4192631;28;20399;-79
2020/12/24 09:20:12;;;;;;;69.63;50.03;;;;;;;9.10;64.38;94890.28;4192346;28;20100;-78
2020/12/24 09:22:14;;;;;;;73.72;49.08;;;;;;;9.16;64.58;94887.09;4177052;28;20481;-78
2020/12/24 09:24:15;;;;;;;74.15;47.75;;;;;;;9.25;64.99;94872.34;4194333;28;20502;-79
2020/12/24 09:26:16;;;;;;;67.72;48.92;;;;;;;9.46;64.23;94872.06;4193494;28;20052;-80
2020/12/24 09:28:25;;;;;;;65.93;47.92;;;;;;;9.69;63.74;94872.47;4186931;28;20110;-78
2020/12/24 09:30:27;;;;;;;65.20;48.10;;;;;;;9.83;62.88;94874.56;4189715;28;20059;-78
2020/12/24 09:32:28;;;;;;;71.72;48.30;;;;;;;9.81;62.66;94868.66;4190188;28;20056;-78